sensor_id;sensor_type;location;lat;lon;timestamp;temperature;humidity
680;DHT22;322;48.846;9.230;2022-12-18T00:00:09;-8.20;99.90
680;DHT22;322;48.846;9.230;2022-12-18T00:02:36;-8.50;99.90
680;DHT22;322;48.846;9.230;2022-12-18T00:05:03;-8.50;99.90
680;DHT22;322;48.846;9.230;2022-12-18T00:07:30;-8.60;99.90
680;DHT22;322;48.846;9.230;2022-12-18T00:09:57;-8.70;99.90
680;DHT22;322;48.846;9.230;2022-12-18T00:12:24;-8.80;99.90
680;DHT22;322;48.846;9.230;2022-12-18T00:14:50;-8.70;99.90
680;DHT22;322;48.846;9.230;2022-12-18T00:17:19;-8.60;99.90
680;DHT22;322;48.846;9.230;2022-12-18T00:19:46;-8.40;99.90
680;DHT22;322;48.846;9.230;2022-12-18T00:22:13;-8.30;99.90
680;DHT22;322;48.846;9.230;2022-12-18T00:24:45;-8.40;99.90
680;DHT22;322;48.846;9.230;2022-12-18T00:27:12;-8.50;99.90
680;DHT22;322;48.846;9.230;2022-12-18T00:29:41;-8.60;99.90
680;DHT22;322;48.846;9.230;2022-12-18T00:32:08;-8.60;99.90
680;DHT22;322;48.846;9.230;2022-12-18T00:34:36;-8.70;99.90
680;DHT22;322;48.846;9.230;2022-12-18T00:37:03;-8.60;99.90
680;DHT22;322;48.846;9.230;2022-12-18T00:39:30;-8.70;99.90
680;DHT22;322;48.846;9.230;2022-12-18T00:41:57;-8.70;99.90
680;DHT22;322;48.846;9.230;2022-12-18T00:44:41;-8.70;99.90
680;DHT22;322;48.846;9.230;2022-12-18T00:47:08;-8.70;99.90
680;DHT22;322;48.846;9.230;2022-12-18T00:49:36;-8.80;99.90
680;DHT22;322;48.846;9.230;2022-12-18T00:52:03;-8.70;99.90
680;DHT22;322;48.846;9.230;2022-12-18T00:54:29;-8.70;99.90
680;DHT22;322;48.846;9.230;2022-12-18T00:56:56;-8.50;99.90
680;DHT22;322;48.846;9.230;2022-12-18T00:59:23;-8.70;99.90
680;DHT22;322;48.846;9.230;2022-12-18T01:01:50;-8.70;99.90
680;DHT22;322;48.846;9.230;2022-12-18T01:04:16;-8.60;99.90
680;DHT22;322;48.846;9.230;2022-12-18T01:06:45;-8.50;99.90
680;DHT22;322;48.846;9.230;2022-12-18T01:09:12;-8.50;99.90
680;DHT22;322;48.846;9.230;2022-12-18T01:11:39;-8.30;99.90
680;DHT22;322;48.846;9.230;2022-12-18T01:14:06;-8.30;99.90
680;DHT22;322;48.846;9.230;2022-12-18T01:16:33;-8.20;99.90
680;DHT22;322;48.846;9.230;2022-12-18T01:18:59;-8.30;99.90
680;DHT22;322;48.846;9.230;2022-12-18T01:21:26;-8.40;99.90
680;DHT22;322;48.846;9.230;2022-12-18T01:23:55;-8.30;99.90
680;DHT22;322;48.846;9.230;2022-12-18T01:26:23;-8.30;99.90
680;DHT22;322;48.846;9.230;2022-12-18T01:28:51;-8.30;99.90
680;DHT22;322;48.846;9.230;2022-12-18T01:31:20;-8.40;99.90
680;DHT22;322;48.846;9.230;2022-12-18T01:33:50;-8.50;99.90
680;DHT22;322;48.846;9.230;2022-12-18T01:36:20;-8.80;99.90
680;DHT22;322;48.846;9.230;2022-12-18T01:38:47;-8.80;99.90
680;DHT22;322;48.846;9.230;2022-12-18T01:41:18;-8.70;99.90
680;DHT22;322;48.846;9.230;2022-12-18T01:43:48;-8.50;99.90
680;DHT22;322;48.846;9.230;2022-12-18T01:46:15;-8.40;99.90
680;DHT22;322;48.846;9.230;2022-12-18T01:48:43;-8.30;99.90
680;DHT22;322;48.846;9.230;2022-12-18T01:51:11;-8.30;99.90
680;DHT22;322;48.846;9.230;2022-12-18T01:53:40;-8.40;99.90
680;DHT22;322;48.846;9.230;2022-12-18T01:56:08;-8.50;99.90
680;DHT22;322;48.846;9.230;2022-12-18T01:58:46;-8.40;99.90
680;DHT22;322;48.846;9.230;2022-12-18T02:01:15;-8.30;99.90
680;DHT22;322;48.846;9.230;2022-12-18T02:03:42;-8.40;99.90
680;DHT22;322;48.846;9.230;2022-12-18T02:06:13;-8.20;99.90
680;DHT22;322;48.846;9.230;2022-12-18T02:08:48;-8.10;99.90
680;DHT22;322;48.846;9.230;2022-12-18T02:11:21;-8.00;99.90
680;DHT22;322;48.846;9.230;2022-12-18T02:13:59;-8.00;99.90
680;DHT22;322;48.846;9.230;2022-12-18T02:16:37;-7.80;99.90
680;DHT22;322;48.846;9.230;2022-12-18T02:19:13;-7.70;99.90
680;DHT22;322;48.846;9.230;2022-12-18T02:21:48;-7.60;99.90
680;DHT22;322;48.846;9.230;2022-12-18T02:24:28;-7.60;99.90
680;DHT22;322;48.846;9.230;2022-12-18T02:26:59;-7.60;99.90
680;DHT22;322;48.846;9.230;2022-12-18T02:29:31;-7.50;99.90
680;DHT22;322;48.846;9.230;2022-12-18T02:32:03;-7.40;99.90
680;DHT22;322;48.846;9.230;2022-12-18T02:34:35;-7.40;99.90
680;DHT22;322;48.846;9.230;2022-12-18T02:37:05;-7.40;99.90
680;DHT22;322;48.846;9.230;2022-12-18T02:39:35;-7.30;99.90
680;DHT22;322;48.846;9.230;2022-12-18T02:42:04;-7.30;99.90
680;DHT22;322;48.846;9.230;2022-12-18T02:44:33;-7.30;99.90
680;DHT22;322;48.846;9.230;2022-12-18T02:47:00;-7.30;99.90
680;DHT22;322;48.846;9.230;2022-12-18T02:49:33;-7.30;99.90
680;DHT22;322;48.846;9.230;2022-12-18T02:52:06;-7.40;99.90
680;DHT22;322;48.846;9.230;2022-12-18T02:54:41;-7.60;99.90
680;DHT22;322;48.846;9.230;2022-12-18T02:57:19;-7.50;99.90
680;DHT22;322;48.846;9.230;2022-12-18T02:59:56;-7.60;99.90
680;DHT22;322;48.846;9.230;2022-12-18T03:02:29;-7.50;99.90
680;DHT22;322;48.846;9.230;2022-12-18T03:05:02;-7.60;99.90
680;DHT22;322;48.846;9.230;2022-12-18T03:07:37;-7.50;99.90
680;DHT22;322;48.846;9.230;2022-12-18T03:10:07;-7.50;99.90
680;DHT22;322;48.846;9.230;2022-12-18T03:12:40;-7.70;99.90
680;DHT22;322;48.846;9.230;2022-12-18T03:15:11;-7.70;99.90
680;DHT22;322;48.846;9.230;2022-12-18T03:17:43;-7.80;99.90
680;DHT22;322;48.846;9.230;2022-12-18T03:20:14;-7.80;99.90
680;DHT22;322;48.846;9.230;2022-12-18T03:22:43;-7.70;99.90
680;DHT22;322;48.846;9.230;2022-12-18T03:25:13;-7.70;99.90
680;DHT22;322;48.846;9.230;2022-12-18T03:27:47;-7.70;99.90
680;DHT22;322;48.846;9.230;2022-12-18T03:30:16;-7.70;99.90
680;DHT22;322;48.846;9.230;2022-12-18T03:32:47;-7.70;99.90
680;DHT22;322;48.846;9.230;2022-12-18T03:35:22;-7.70;99.90
680;DHT22;322;48.846;9.230;2022-12-18T03:37:50;-7.70;99.90
680;DHT22;322;48.846;9.230;2022-12-18T03:40:18;-7.80;99.90
680;DHT22;322;48.846;9.230;2022-12-18T03:42:50;-7.80;99.90
680;DHT22;322;48.846;9.230;2022-12-18T03:45:22;-7.90;99.90
680;DHT22;322;48.846;9.230;2022-12-18T03:47:58;-7.90;99.90
680;DHT22;322;48.846;9.230;2022-12-18T03:50:33;-8.00;99.90
680;DHT22;322;48.846;9.230;2022-12-18T03:53:13;-8.10;99.90
680;DHT22;322;48.846;9.230;2022-12-18T03:55:44;-8.00;99.90
680;DHT22;322;48.846;9.230;2022-12-18T03:58:16;-8.00;99.90
680;DHT22;322;48.846;9.230;2022-12-18T04:00:44;-8.10;99.90
680;DHT22;322;48.846;9.230;2022-12-18T04:03:12;-8.10;99.90
680;DHT22;322;48.846;9.230;2022-12-18T04:05:41;-8.20;99.90
680;DHT22;322;48.846;9.230;2022-12-18T04:08:09;-8.20;99.90
680;DHT22;322;48.846;9.230;2022-12-18T04:10:36;-8.20;99.90
680;DHT22;322;48.846;9.230;2022-12-18T04:13:02;-8.10;99.90
680;DHT22;322;48.846;9.230;2022-12-18T04:15:31;-8.10;99.90
680;DHT22;322;48.846;9.230;2022-12-18T04:18:00;-8.00;99.90
680;DHT22;322;48.846;9.230;2022-12-18T04:20:27;-8.10;99.90
680;DHT22;322;48.846;9.230;2022-12-18T04:22:54;-8.10;99.90
680;DHT22;322;48.846;9.230;2022-12-18T04:25:20;-8.00;99.90
680;DHT22;322;48.846;9.230;2022-12-18T04:27:47;-8.10;99.90
680;DHT22;322;48.846;9.230;2022-12-18T04:30:14;-8.20;99.90
680;DHT22;322;48.846;9.230;2022-12-18T04:32:42;-8.40;99.90
680;DHT22;322;48.846;9.230;2022-12-18T04:35:09;-8.30;99.90
680;DHT22;322;48.846;9.230;2022-12-18T04:37:37;-8.30;99.90
680;DHT22;322;48.846;9.230;2022-12-18T04:40:05;-8.20;99.90
680;DHT22;322;48.846;9.230;2022-12-18T04:42:32;-8.20;99.90
680;DHT22;322;48.846;9.230;2022-12-18T04:44:58;-8.10;99.90
680;DHT22;322;48.846;9.230;2022-12-18T04:47:25;-8.20;99.90
680;DHT22;322;48.846;9.230;2022-12-18T04:49:53;-8.20;99.90
680;DHT22;322;48.846;9.230;2022-12-18T04:52:20;-8.20;99.90
680;DHT22;322;48.846;9.230;2022-12-18T04:54:47;-8.20;99.90
680;DHT22;322;48.846;9.230;2022-12-18T04:57:13;-8.20;99.90
680;DHT22;322;48.846;9.230;2022-12-18T04:59:40;-8.40;99.90
680;DHT22;322;48.846;9.230;2022-12-18T05:02:07;-8.60;99.90
680;DHT22;322;48.846;9.230;2022-12-18T05:04:34;-8.60;99.90
680;DHT22;322;48.846;9.230;2022-12-18T05:07:02;-8.70;99.90
680;DHT22;322;48.846;9.230;2022-12-18T05:09:29;-8.80;99.90
680;DHT22;322;48.846;9.230;2022-12-18T05:11:56;-8.60;99.90
680;DHT22;322;48.846;9.230;2022-12-18T05:14:23;-8.60;99.90
680;DHT22;322;48.846;9.230;2022-12-18T05:16:49;-8.60;99.90
680;DHT22;322;48.846;9.230;2022-12-18T05:19:16;-8.60;99.90
680;DHT22;322;48.846;9.230;2022-12-18T05:21:43;-8.60;99.90
680;DHT22;322;48.846;9.230;2022-12-18T05:24:11;-8.60;99.90
680;DHT22;322;48.846;9.230;2022-12-18T05:26:38;-8.70;99.90
680;DHT22;322;48.846;9.230;2022-12-18T05:29:05;-8.60;99.90
680;DHT22;322;48.846;9.230;2022-12-18T05:31:32;-8.50;99.90
680;DHT22;322;48.846;9.230;2022-12-18T05:33:58;-8.50;99.90
680;DHT22;322;48.846;9.230;2022-12-18T05:36:25;-8.60;99.90
680;DHT22;322;48.846;9.230;2022-12-18T05:38:52;-8.70;99.90
680;DHT22;322;48.846;9.230;2022-12-18T05:41:20;-8.60;99.90
680;DHT22;322;48.846;9.230;2022-12-18T05:43:47;-8.60;99.90
680;DHT22;322;48.846;9.230;2022-12-18T05:46:15;-8.60;99.90
680;DHT22;322;48.846;9.230;2022-12-18T05:48:43;-8.50;99.90
680;DHT22;322;48.846;9.230;2022-12-18T05:51:11;-8.40;99.90
680;DHT22;322;48.846;9.230;2022-12-18T05:53:38;-8.30;99.90
680;DHT22;322;48.846;9.230;2022-12-18T05:56:07;-8.20;99.90
680;DHT22;322;48.846;9.230;2022-12-18T05:58:35;-8.20;99.90
680;DHT22;322;48.846;9.230;2022-12-18T06:01:07;-8.10;99.90
680;DHT22;322;48.846;9.230;2022-12-18T06:03:34;-8.10;99.90
680;DHT22;322;48.846;9.230;2022-12-18T06:06:00;-8.10;99.90
680;DHT22;322;48.846;9.230;2022-12-18T06:08:27;-8.10;99.90
680;DHT22;322;48.846;9.230;2022-12-18T06:10:54;-8.00;99.90
680;DHT22;322;48.846;9.230;2022-12-18T06:13:21;-8.00;99.90
680;DHT22;322;48.846;9.230;2022-12-18T06:15:49;-8.00;99.90
680;DHT22;322;48.846;9.230;2022-12-18T06:18:16;-8.10;99.90
680;DHT22;322;48.846;9.230;2022-12-18T06:20:43;-8.10;99.90
680;DHT22;322;48.846;9.230;2022-12-18T06:23:09;-8.00;99.90
680;DHT22;322;48.846;9.230;2022-12-18T06:25:38;-8.10;99.90
680;DHT22;322;48.846;9.230;2022-12-18T06:28:05;-8.10;99.90
680;DHT22;322;48.846;9.230;2022-12-18T06:30:32;-8.10;99.90
680;DHT22;322;48.846;9.230;2022-12-18T06:33:00;-8.20;99.90
680;DHT22;322;48.846;9.230;2022-12-18T06:35:27;-8.20;99.90
680;DHT22;322;48.846;9.230;2022-12-18T06:37:54;-8.20;99.90
680;DHT22;322;48.846;9.230;2022-12-18T06:40:21;-8.10;99.90
680;DHT22;322;48.846;9.230;2022-12-18T06:42:47;-8.10;99.90
680;DHT22;322;48.846;9.230;2022-12-18T06:45:15;-8.10;99.90
680;DHT22;322;48.846;9.230;2022-12-18T06:47:42;-8.20;99.90
680;DHT22;322;48.846;9.230;2022-12-18T06:50:11;-8.20;99.90
680;DHT22;322;48.846;9.230;2022-12-18T06:52:38;-8.20;99.90
680;DHT22;322;48.846;9.230;2022-12-18T06:55:11;-8.10;99.90
680;DHT22;322;48.846;9.230;2022-12-18T06:57:38;-8.30;99.90
680;DHT22;322;48.846;9.230;2022-12-18T07:00:06;-8.20;99.90
680;DHT22;322;48.846;9.230;2022-12-18T07:02:33;-8.20;99.90
680;DHT22;322;48.846;9.230;2022-12-18T07:05:01;-8.20;99.90
680;DHT22;322;48.846;9.230;2022-12-18T07:07:29;-8.20;99.90
680;DHT22;322;48.846;9.230;2022-12-18T07:09:55;-8.10;99.90
680;DHT22;322;48.846;9.230;2022-12-18T07:12:22;-8.10;99.90
680;DHT22;322;48.846;9.230;2022-12-18T07:14:49;-8.10;99.90
680;DHT22;322;48.846;9.230;2022-12-18T07:17:16;-8.10;99.90
680;DHT22;322;48.846;9.230;2022-12-18T07:19:42;-8.10;99.90
680;DHT22;322;48.846;9.230;2022-12-18T07:22:09;-8.10;99.90
680;DHT22;322;48.846;9.230;2022-12-18T07:24:37;-8.00;99.90
680;DHT22;322;48.846;9.230;2022-12-18T07:27:04;-8.00;99.90
680;DHT22;322;48.846;9.230;2022-12-18T07:29:31;-8.00;99.90
680;DHT22;322;48.846;9.230;2022-12-18T07:31:58;-7.90;99.90
680;DHT22;322;48.846;9.230;2022-12-18T07:34:24;-7.90;99.90
680;DHT22;322;48.846;9.230;2022-12-18T07:36:51;-7.80;99.90
680;DHT22;322;48.846;9.230;2022-12-18T07:39:18;-7.80;99.90
680;DHT22;322;48.846;9.230;2022-12-18T07:41:46;-7.80;99.90
680;DHT22;322;48.846;9.230;2022-12-18T07:44:33;-7.90;99.90
680;DHT22;322;48.846;9.230;2022-12-18T07:47:00;-7.80;99.90
680;DHT22;322;48.846;9.230;2022-12-18T07:49:27;-7.80;99.90
680;DHT22;322;48.846;9.230;2022-12-18T07:51:54;-7.70;99.90
680;DHT22;322;48.846;9.230;2022-12-18T07:54:21;-7.60;99.90
680;DHT22;322;48.846;9.230;2022-12-18T07:56:50;-7.60;99.90
680;DHT22;322;48.846;9.230;2022-12-18T07:59:17;-7.60;99.90
680;DHT22;322;48.846;9.230;2022-12-18T08:01:44;-7.60;99.90
680;DHT22;322;48.846;9.230;2022-12-18T08:04:11;-7.50;99.90
680;DHT22;322;48.846;9.230;2022-12-18T08:06:37;-7.40;99.90
680;DHT22;322;48.846;9.230;2022-12-18T08:09:04;-7.50;99.90
680;DHT22;322;48.846;9.230;2022-12-18T08:11:31;-7.50;99.90
680;DHT22;322;48.846;9.230;2022-12-18T08:13:59;-7.40;99.90
680;DHT22;322;48.846;9.230;2022-12-18T08:16:26;-7.30;99.90
680;DHT22;322;48.846;9.230;2022-12-18T08:18:53;-7.30;99.90
680;DHT22;322;48.846;9.230;2022-12-18T08:21:23;-7.20;99.90
680;DHT22;322;48.846;9.230;2022-12-18T08:23:51;-7.20;99.90
680;DHT22;322;48.846;9.230;2022-12-18T08:26:19;-7.00;99.90
680;DHT22;322;48.846;9.230;2022-12-18T08:28:46;-6.90;99.90
680;DHT22;322;48.846;9.230;2022-12-18T08:31:14;-6.80;99.90
680;DHT22;322;48.846;9.230;2022-12-18T08:33:43;-6.70;99.90
680;DHT22;322;48.846;9.230;2022-12-18T08:36:10;-6.50;99.90
680;DHT22;322;48.846;9.230;2022-12-18T08:38:36;-6.30;99.90
680;DHT22;322;48.846;9.230;2022-12-18T08:41:05;-6.10;99.90
680;DHT22;322;48.846;9.230;2022-12-18T08:43:32;-6.00;99.90
680;DHT22;322;48.846;9.230;2022-12-18T08:46:19;-5.90;99.90
680;DHT22;322;48.846;9.230;2022-12-18T08:48:46;-5.90;99.90
680;DHT22;322;48.846;9.230;2022-12-18T08:51:15;-5.80;99.90
680;DHT22;322;48.846;9.230;2022-12-18T08:53:42;-5.70;99.90
680;DHT22;322;48.846;9.230;2022-12-18T08:56:10;-5.60;99.90
680;DHT22;322;48.846;9.230;2022-12-18T08:58:37;-5.60;99.90
680;DHT22;322;48.846;9.230;2022-12-18T09:01:05;-5.70;99.90
680;DHT22;322;48.846;9.230;2022-12-18T09:03:34;-5.60;99.90
680;DHT22;322;48.846;9.230;2022-12-18T09:06:01;-5.50;99.90
680;DHT22;322;48.846;9.230;2022-12-18T09:08:28;-5.60;99.90
680;DHT22;322;48.846;9.230;2022-12-18T09:10:55;-5.50;99.90
680;DHT22;322;48.846;9.230;2022-12-18T09:13:22;-5.50;99.90
680;DHT22;322;48.846;9.230;2022-12-18T09:15:51;-5.40;99.90
680;DHT22;322;48.846;9.230;2022-12-18T09:18:20;-5.30;99.90
680;DHT22;322;48.846;9.230;2022-12-18T09:20:48;-5.30;99.90
680;DHT22;322;48.846;9.230;2022-12-18T09:23:17;-5.10;99.90
680;DHT22;322;48.846;9.230;2022-12-18T09:25:44;-5.00;99.90
680;DHT22;322;48.846;9.230;2022-12-18T09:28:15;-4.90;99.90
680;DHT22;322;48.846;9.230;2022-12-18T09:30:45;-4.90;99.90
680;DHT22;322;48.846;9.230;2022-12-18T09:33:12;-4.70;99.90
680;DHT22;322;48.846;9.230;2022-12-18T09:35:40;-4.60;99.90
680;DHT22;322;48.846;9.230;2022-12-18T09:38:12;-4.40;99.90
680;DHT22;322;48.846;9.230;2022-12-18T09:40:42;-4.30;99.90
680;DHT22;322;48.846;9.230;2022-12-18T09:43:14;-4.20;99.90
680;DHT22;322;48.846;9.230;2022-12-18T09:45:45;-4.10;99.90
680;DHT22;322;48.846;9.230;2022-12-18T09:48:17;-4.00;99.90
680;DHT22;322;48.846;9.230;2022-12-18T09:50:45;-3.90;99.90
680;DHT22;322;48.846;9.230;2022-12-18T09:53:17;-4.00;99.90
680;DHT22;322;48.846;9.230;2022-12-18T09:55:46;-3.80;99.90
680;DHT22;322;48.846;9.230;2022-12-18T09:58:19;-3.70;99.90
680;DHT22;322;48.846;9.230;2022-12-18T10:00:47;-3.60;99.90
680;DHT22;322;48.846;9.230;2022-12-18T10:03:15;-3.60;99.90
680;DHT22;322;48.846;9.230;2022-12-18T10:05:50;-3.80;99.90
680;DHT22;322;48.846;9.230;2022-12-18T10:08:27;-3.60;99.90
680;DHT22;322;48.846;9.230;2022-12-18T10:11:00;-3.40;99.90
680;DHT22;322;48.846;9.230;2022-12-18T10:13:31;-3.40;99.90
680;DHT22;322;48.846;9.230;2022-12-18T10:16:08;-3.50;99.90
680;DHT22;322;48.846;9.230;2022-12-18T10:18:58;-3.40;99.90
680;DHT22;322;48.846;9.230;2022-12-18T10:21:31;-3.10;99.90
680;DHT22;322;48.846;9.230;2022-12-18T10:24:08;-2.50;99.90
680;DHT22;322;48.846;9.230;2022-12-18T10:26:38;-2.10;99.90
680;DHT22;322;48.846;9.230;2022-12-18T10:29:10;-1.70;99.90
680;DHT22;322;48.846;9.230;2022-12-18T10:31:37;-1.30;99.90
680;DHT22;322;48.846;9.230;2022-12-18T10:34:04;-1.20;99.90
680;DHT22;322;48.846;9.230;2022-12-18T10:36:31;-0.90;99.90
680;DHT22;322;48.846;9.230;2022-12-18T10:39:14;-0.90;99.90
680;DHT22;322;48.846;9.230;2022-12-18T10:41:42;-1.10;99.90
680;DHT22;322;48.846;9.230;2022-12-18T10:44:16;-1.10;99.90
680;DHT22;322;48.846;9.230;2022-12-18T10:46:45;-1.00;99.90
680;DHT22;322;48.846;9.230;2022-12-18T10:49:23;-1.00;99.90
680;DHT22;322;48.846;9.230;2022-12-18T10:51:52;-1.00;99.90
680;DHT22;322;48.846;9.230;2022-12-18T10:54:32;-1.00;99.90
680;DHT22;322;48.846;9.230;2022-12-18T10:57:15;-0.90;99.90
680;DHT22;322;48.846;9.230;2022-12-18T10:59:52;-0.90;99.90
680;DHT22;322;48.846;9.230;2022-12-18T11:02:28;-0.80;99.90
680;DHT22;322;48.846;9.230;2022-12-18T11:04:59;-0.80;99.90
680;DHT22;322;48.846;9.230;2022-12-18T11:07:47;-0.80;99.90
680;DHT22;322;48.846;9.230;2022-12-18T11:10:18;-0.70;99.90
680;DHT22;322;48.846;9.230;2022-12-18T11:12:45;-0.80;99.90
680;DHT22;322;48.846;9.230;2022-12-18T11:15:18;-0.70;99.90
680;DHT22;322;48.846;9.230;2022-12-18T11:17:48;-0.50;99.90
680;DHT22;322;48.846;9.230;2022-12-18T11:20:24;-0.40;99.90
680;DHT22;322;48.846;9.230;2022-12-18T11:22:57;-0.20;99.90
680;DHT22;322;48.846;9.230;2022-12-18T11:25:28;0.00;99.90
680;DHT22;322;48.846;9.230;2022-12-18T11:27:56;0.10;99.90
680;DHT22;322;48.846;9.230;2022-12-18T11:30:26;0.20;99.90
680;DHT22;322;48.846;9.230;2022-12-18T11:32:56;0.00;99.90
680;DHT22;322;48.846;9.230;2022-12-18T11:35:38;0.10;99.90
680;DHT22;322;48.846;9.230;2022-12-18T11:38:15;0.00;99.90
680;DHT22;322;48.846;9.230;2022-12-18T11:40:49;0.00;99.90
680;DHT22;322;48.846;9.230;2022-12-18T11:43:21;0.10;99.90
680;DHT22;322;48.846;9.230;2022-12-18T11:45:52;0.20;99.90
680;DHT22;322;48.846;9.230;2022-12-18T11:48:23;0.00;99.90
680;DHT22;322;48.846;9.230;2022-12-18T11:50:53;0.00;99.90
680;DHT22;322;48.846;9.230;2022-12-18T11:53:21;0.10;99.90
680;DHT22;322;48.846;9.230;2022-12-18T11:56:14;0.20;99.90
680;DHT22;322;48.846;9.230;2022-12-18T11:58:49;0.30;99.90
680;DHT22;322;48.846;9.230;2022-12-18T12:01:32;0.30;99.90
680;DHT22;322;48.846;9.230;2022-12-18T12:04:28;0.20;99.90
680;DHT22;322;48.846;9.230;2022-12-18T12:07:06;0.10;99.90
680;DHT22;322;48.846;9.230;2022-12-18T12:09:43;0.10;99.90
680;DHT22;322;48.846;9.230;2022-12-18T12:12:25;0.00;99.90
680;DHT22;322;48.846;9.230;2022-12-18T12:14:59;0.10;99.90
680;DHT22;322;48.846;9.230;2022-12-18T12:17:34;0.10;99.90
680;DHT22;322;48.846;9.230;2022-12-18T12:20:07;0.10;99.90
680;DHT22;322;48.846;9.230;2022-12-18T12:22:39;0.10;99.90
680;DHT22;322;48.846;9.230;2022-12-18T12:25:27;-0.20;99.90
680;DHT22;322;48.846;9.230;2022-12-18T12:28:05;-0.20;99.90
680;DHT22;322;48.846;9.230;2022-12-18T12:30:42;-0.10;99.90
680;DHT22;322;48.846;9.230;2022-12-18T12:33:22;-0.10;99.90
680;DHT22;322;48.846;9.230;2022-12-18T12:35:58;-0.10;99.90
680;DHT22;322;48.846;9.230;2022-12-18T12:38:30;-0.10;99.90
680;DHT22;322;48.846;9.230;2022-12-18T12:41:00;-0.20;99.90
680;DHT22;322;48.846;9.230;2022-12-18T12:43:34;-0.20;99.90
680;DHT22;322;48.846;9.230;2022-12-18T12:46:04;-0.10;99.90
680;DHT22;322;48.846;9.230;2022-12-18T12:48:35;0.00;99.90
680;DHT22;322;48.846;9.230;2022-12-18T12:51:11;0.00;99.90
680;DHT22;322;48.846;9.230;2022-12-18T12:53:39;0.00;99.90
680;DHT22;322;48.846;9.230;2022-12-18T12:56:08;0.10;99.90
680;DHT22;322;48.846;9.230;2022-12-18T12:58:45;0.10;99.90
680;DHT22;322;48.846;9.230;2022-12-18T13:01:18;0.20;99.90
680;DHT22;322;48.846;9.230;2022-12-18T13:03:56;0.20;99.90
680;DHT22;322;48.846;9.230;2022-12-18T13:06:42;0.20;99.90
680;DHT22;322;48.846;9.230;2022-12-18T13:09:10;0.30;99.90
680;DHT22;322;48.846;9.230;2022-12-18T13:11:39;0.20;99.90
680;DHT22;322;48.846;9.230;2022-12-18T13:14:28;0.20;99.90
680;DHT22;322;48.846;9.230;2022-12-18T13:17:14;0.20;99.90
680;DHT22;322;48.846;9.230;2022-12-18T13:19:42;0.30;99.90
680;DHT22;322;48.846;9.230;2022-12-18T13:22:21;0.10;99.90
680;DHT22;322;48.846;9.230;2022-12-18T13:24:48;0.10;99.90
680;DHT22;322;48.846;9.230;2022-12-18T13:30:42;0.10;99.90
680;DHT22;322;48.846;9.230;2022-12-18T13:36:28;0.50;99.90
680;DHT22;322;48.846;9.230;2022-12-18T13:41:54;0.90;99.90
680;DHT22;322;48.846;9.230;2022-12-18T13:45:00;1.00;99.90
680;DHT22;322;48.846;9.230;2022-12-18T13:47:32;1.10;99.90
680;DHT22;322;48.846;9.230;2022-12-18T13:50:00;1.10;99.90
680;DHT22;322;48.846;9.230;2022-12-18T13:52:34;1.10;99.90
680;DHT22;322;48.846;9.230;2022-12-18T13:55:10;1.00;99.90
680;DHT22;322;48.846;9.230;2022-12-18T13:57:41;1.00;99.90
680;DHT22;322;48.846;9.230;2022-12-18T14:00:24;0.80;99.90
680;DHT22;322;48.846;9.230;2022-12-18T14:02:52;0.80;99.90
680;DHT22;322;48.846;9.230;2022-12-18T14:05:22;0.80;99.90
680;DHT22;322;48.846;9.230;2022-12-18T14:07:49;0.90;99.90
680;DHT22;322;48.846;9.230;2022-12-18T14:10:16;0.90;99.90
680;DHT22;322;48.846;9.230;2022-12-18T14:12:46;0.90;99.90
680;DHT22;322;48.846;9.230;2022-12-18T14:15:31;0.80;99.90
680;DHT22;322;48.846;9.230;2022-12-18T14:18:02;0.90;99.90
680;DHT22;322;48.846;9.230;2022-12-18T14:20:31;0.80;99.90
680;DHT22;322;48.846;9.230;2022-12-18T14:22:59;0.80;99.90
680;DHT22;322;48.846;9.230;2022-12-18T14:25:27;0.70;99.90
680;DHT22;322;48.846;9.230;2022-12-18T14:28:03;0.50;99.90
680;DHT22;322;48.846;9.230;2022-12-18T14:30:37;0.40;99.90
680;DHT22;322;48.846;9.230;2022-12-18T14:33:09;0.30;99.90
680;DHT22;322;48.846;9.230;2022-12-18T14:35:38;0.20;99.90
680;DHT22;322;48.846;9.230;2022-12-18T14:38:19;0.00;99.90
680;DHT22;322;48.846;9.230;2022-12-18T14:40:47;-0.10;99.90
680;DHT22;322;48.846;9.230;2022-12-18T14:43:14;-0.20;99.90
680;DHT22;322;48.846;9.230;2022-12-18T14:45:42;-0.30;99.90
680;DHT22;322;48.846;9.230;2022-12-18T14:48:16;-0.40;99.90
680;DHT22;322;48.846;9.230;2022-12-18T14:50:43;-0.50;99.90
680;DHT22;322;48.846;9.230;2022-12-18T14:53:22;-0.50;99.90
680;DHT22;322;48.846;9.230;2022-12-18T14:55:49;-0.50;99.90
680;DHT22;322;48.846;9.230;2022-12-18T14:58:17;-0.70;99.90
680;DHT22;322;48.846;9.230;2022-12-18T15:00:44;-0.70;99.90
680;DHT22;322;48.846;9.230;2022-12-18T15:03:18;-0.80;99.90
680;DHT22;322;48.846;9.230;2022-12-18T15:05:46;-0.90;99.90
680;DHT22;322;48.846;9.230;2022-12-18T15:08:31;-1.00;99.90
680;DHT22;322;48.846;9.230;2022-12-18T15:11:00;-1.10;99.90
680;DHT22;322;48.846;9.230;2022-12-18T15:13:27;-1.20;99.90
680;DHT22;322;48.846;9.230;2022-12-18T15:15:55;-1.30;99.90
680;DHT22;322;48.846;9.230;2022-12-18T15:18:29;-1.40;99.90
680;DHT22;322;48.846;9.230;2022-12-18T15:20:58;-1.60;99.90
680;DHT22;322;48.846;9.230;2022-12-18T15:23:27;-1.60;99.90
680;DHT22;322;48.846;9.230;2022-12-18T15:25:57;-1.60;99.90
680;DHT22;322;48.846;9.230;2022-12-18T15:28:26;-1.70;99.90
680;DHT22;322;48.846;9.230;2022-12-18T15:31:05;-1.80;99.90
680;DHT22;322;48.846;9.230;2022-12-18T15:33:36;-1.90;99.90
680;DHT22;322;48.846;9.230;2022-12-18T15:36:05;-1.90;99.90
680;DHT22;322;48.846;9.230;2022-12-18T15:38:32;-2.00;99.90
680;DHT22;322;48.846;9.230;2022-12-18T15:40:59;-2.00;99.90
680;DHT22;322;48.846;9.230;2022-12-18T15:43:26;-2.00;99.90
680;DHT22;322;48.846;9.230;2022-12-18T15:46:03;-2.20;99.90
680;DHT22;322;48.846;9.230;2022-12-18T15:48:33;-2.20;99.90
680;DHT22;322;48.846;9.230;2022-12-18T15:51:01;-2.30;99.90
680;DHT22;322;48.846;9.230;2022-12-18T15:53:31;-2.20;99.90
680;DHT22;322;48.846;9.230;2022-12-18T15:55:58;-2.30;99.90
680;DHT22;322;48.846;9.230;2022-12-18T15:58:43;-2.30;99.90
680;DHT22;322;48.846;9.230;2022-12-18T16:01:10;-2.40;99.90
680;DHT22;322;48.846;9.230;2022-12-18T16:03:39;-2.40;99.90
680;DHT22;322;48.846;9.230;2022-12-18T16:06:06;-2.50;99.90
680;DHT22;322;48.846;9.230;2022-12-18T16:08:33;-2.40;99.90
680;DHT22;322;48.846;9.230;2022-12-18T16:11:00;-2.40;99.90
680;DHT22;322;48.846;9.230;2022-12-18T16:13:28;-2.50;99.90
680;DHT22;322;48.846;9.230;2022-12-18T16:15:55;-2.50;99.90
680;DHT22;322;48.846;9.230;2022-12-18T16:18:22;-2.60;99.90
680;DHT22;322;48.846;9.230;2022-12-18T16:20:50;-2.60;99.90
680;DHT22;322;48.846;9.230;2022-12-18T16:23:17;-2.50;99.90
680;DHT22;322;48.846;9.230;2022-12-18T16:25:43;-2.60;99.90
680;DHT22;322;48.846;9.230;2022-12-18T16:28:10;-2.60;99.90
680;DHT22;322;48.846;9.230;2022-12-18T16:30:37;-2.70;99.90
680;DHT22;322;48.846;9.230;2022-12-18T16:33:05;-2.70;99.90
680;DHT22;322;48.846;9.230;2022-12-18T16:35:32;-2.70;99.90
680;DHT22;322;48.846;9.230;2022-12-18T16:38:00;-2.70;99.90
680;DHT22;322;48.846;9.230;2022-12-18T16:40:27;-2.70;99.90
680;DHT22;322;48.846;9.230;2022-12-18T16:42:54;-2.70;99.90
680;DHT22;322;48.846;9.230;2022-12-18T16:45:20;-2.70;99.90
680;DHT22;322;48.846;9.230;2022-12-18T16:47:47;-2.80;99.90
680;DHT22;322;48.846;9.230;2022-12-18T16:50:14;-2.80;99.90
680;DHT22;322;48.846;9.230;2022-12-18T16:52:41;-2.70;99.90
680;DHT22;322;48.846;9.230;2022-12-18T16:55:10;-2.70;99.90
680;DHT22;322;48.846;9.230;2022-12-18T16:57:36;-2.60;99.90
680;DHT22;322;48.846;9.230;2022-12-18T17:00:05;-2.60;99.90
680;DHT22;322;48.846;9.230;2022-12-18T17:02:32;-2.60;99.90
680;DHT22;322;48.846;9.230;2022-12-18T17:04:59;-2.60;99.90